Time;durP1;ratioP1;P1;durP2;ratioP2;P2;SDS_P1;SDS_P2;PMS_P1;PMS_P2;Temp;Humidity;BMP_temperature;BMP_pressure;BME280_temperature;BME280_humidity;BME280_pressure;Samples;Min_cycle;Max_cycle;Signal;HPM_P1;HPM_P2
2021/01/28 00:01:02;;;;;;;19.00;7.88;;;8.40;87.80;;;;;;5000605;28;20045;-89
2021/01/28 00:03:28;;;;;;;18.92;8.52;;;8.40;87.80;;;;;;4998487;28;20030;-89
2021/01/28 00:05:54;;;;;;;27.55;11.15;;;8.40;87.70;;;;;;5024782;28;20025;-89
2021/01/28 00:08:19;;;;;;;16.92;8.02;;;8.40;87.70;;;;;;5003248;28;20043;-88
2021/01/28 00:10:45;;;;;;;17.42;8.07;;;8.40;87.70;;;;;;5001011;28;20054;-88
2021/01/28 00:13:11;;;;;;;16.05;7.78;;;8.40;87.70;;;;;;4989990;28;20023;-89
2021/01/28 00:15:37;;;;;;;19.63;8.45;;;8.40;87.60;;;;;;4994699;28;20456;-89
2021/01/28 00:18:04;;;;;;;13.98;7.10;;;8.40;87.60;;;;;;4993703;28;20034;-88
2021/01/28 00:20:39;;;;;;;17.98;8.27;;;8.40;87.60;;;;;;4990811;28;20104;-89
2021/01/28 00:23:05;;;;;;;19.17;8.40;;;8.40;87.60;;;;;;4994807;28;20033;-88
2021/01/28 00:25:31;;;;;;;17.83;8.35;;;8.40;87.60;;;;;;4984839;28;20027;-89
2021/01/28 00:27:56;;;;;;;16.95;8.05;;;8.40;87.60;;;;;;4991845;28;20026;-89
2021/01/28 00:30:25;;;;;;;20.70;9.07;;;8.40;87.50;;;;;;5002360;28;20483;-89
2021/01/28 00:32:51;;;;;;;17.52;8.55;;;8.40;87.50;;;;;;4975473;28;20025;-90
2021/01/28 00:35:32;;;;;;;15.02;7.25;;;8.40;87.50;;;;;;4980569;28;20599;-90
2021/01/28 00:37:58;;;;;;;20.98;9.60;;;8.40;87.50;;;;;;5004489;28;20084;-90
2021/01/28 00:40:26;;;;;;;21.83;9.90;;;8.40;87.50;;;;;;4999750;28;20061;-90
2021/01/28 00:42:51;;;;;;;21.80;9.57;;;8.40;87.50;;;;;;4978689;28;20030;-90
2021/01/28 00:45:24;;;;;;;16.20;8.23;;;8.40;87.50;;;;;;4997776;28;20038;-89
2021/01/28 00:47:50;;;;;;;15.32;6.72;;;8.50;87.50;;;;;;5006252;28;20479;-89
2021/01/28 00:50:18;;;;;;;15.90;7.18;;;8.50;87.50;;;;;;5004673;28;20034;-90
2021/01/28 00:52:44;;;;;;;16.38;7.70;;;8.50;87.40;;;;;;4968481;28;20482;-90
2021/01/28 00:55:12;;;;;;;12.70;6.80;;;8.50;87.30;;;;;;4978187;28;20030;-89
2021/01/28 00:57:38;;;;;;;14.88;7.45;;;8.50;87.20;;;;;;4995636;28;20486;-89
2021/01/28 01:00:09;;;;;;;18.45;8.27;;;8.50;87.30;;;;;;4993010;28;20049;-88
2021/01/28 01:02:35;;;;;;;17.92;8.75;;;8.50;87.40;;;;;;4991070;28;20018;-89
2021/01/28 01:05:01;;;;;;;20.83;11.48;;;8.40;87.30;;;;;;4991398;28;20018;-89
2021/01/28 01:07:26;;;;;;;20.58;9.68;;;8.40;87.20;;;;;;4991765;28;20250;-88
2021/01/28 01:09:52;;;;;;;23.27;10.52;;;8.40;87.30;;;;;;4991006;28;20022;-88
2021/01/28 01:12:17;;;;;;;17.70;7.82;;;8.30;87.20;;;;;;4988855;28;20445;-88
2021/01/28 01:14:43;;;;;;;15.23;7.28;;;8.40;87.40;;;;;;4991680;28;20026;-89
2021/01/28 01:17:08;;;;;;;17.05;8.30;;;8.40;87.30;;;;;;4988294;28;20521;-88
2021/01/28 01:19:34;;;;;;;11.43;5.88;;;8.30;87.30;;;;;;4992280;28;20015;-89
2021/01/28 01:22:00;;;;;;;14.52;6.72;;;8.40;87.30;;;;;;4996729;28;20594;-88
2021/01/28 01:24:25;;;;;;;20.52;8.60;;;8.40;87.30;;;;;;4997290;28;20041;-88
2021/01/28 01:26:51;;;;;;;23.17;8.88;;;8.40;87.30;;;;;;4992174;28;20033;-88
2021/01/28 01:29:16;;;;;;;22.15;8.98;;;8.50;87.20;;;;;;4992456;28;20034;-88
2021/01/28 01:31:42;;;;;;;15.85;7.32;;;8.40;87.20;;;;;;4995351;28;20069;-89
2021/01/28 01:34:07;;;;;;;19.40;8.25;;;8.40;87.20;;;;;;4998792;28;20048;-89
2021/01/28 01:36:33;;;;;;;19.95;7.50;;;8.30;87.20;;;;;;5000206;28;20026;-89
2021/01/28 01:38:59;;;;;;;14.98;6.72;;;8.40;87.20;;;;;;4997722;28;20030;-89
2021/01/28 01:41:29;;;;;;;17.60;8.18;;;8.40;87.20;;;;;;4998352;28;20026;-88
2021/01/28 01:44:00;;;;;;;16.58;6.38;;;8.40;87.20;;;;;;4997460;28;20096;-88
2021/01/28 01:46:26;;;;;;;17.70;6.90;;;8.40;87.20;;;;;;4981759;28;20025;-88
2021/01/28 01:48:56;;;;;;;15.60;6.65;;;8.40;87.30;;;;;;4987465;28;20083;-88
2021/01/28 01:51:30;;;;;;;12.80;6.28;;;8.40;87.30;;;;;;4989617;28;20034;-89
2021/01/28 01:54:01;;;;;;;17.20;7.35;;;8.40;87.20;;;;;;4985614;28;20022;-87
2021/01/28 01:56:32;;;;;;;14.43;6.47;;;8.40;87.80;;;;;;4989756;28;20105;-88
2021/01/28 01:59:07;;;;;;;19.80;8.38;;;8.50;87.20;;;;;;4987027;28;20069;-88
2021/01/28 02:01:38;;;;;;;16.48;7.07;;;8.40;87.10;;;;;;4981413;28;20033;-88
2021/01/28 02:04:06;;;;;;;16.92;7.18;;;8.40;87.10;;;;;;4989069;28;20033;-89
2021/01/28 02:06:53;;;;;;;18.20;7.88;;;8.50;87.10;;;;;;4997654;28;20030;-88
2021/01/28 02:09:19;;;;;;;14.32;6.63;;;8.50;87.10;;;;;;4993199;28;20066;-88
2021/01/28 02:11:46;;;;;;;13.40;6.32;;;8.50;87.00;;;;;;4993565;28;20116;-88
2021/01/28 02:14:13;;;;;;;18.80;7.35;;;8.50;86.90;;;;;;4991594;28;20023;-89
2021/01/28 02:16:47;;;;;;;15.63;6.93;;;8.50;87.00;;;;;;5001113;28;20023;-89
2021/01/28 02:19:27;;;;;;;15.88;7.22;;;8.40;87.00;;;;;;4991191;28;20046;-88
2021/01/28 02:21:53;;;;;;;11.52;4.80;;;8.40;87.10;;;;;;4986690;28;20073;-88
2021/01/28 02:24:44;;;;;;;16.15;7.00;;;8.40;87.10;;;;;;4991871;28;20042;-89
2021/01/28 02:27:10;;;;;;;17.98;7.93;;;8.40;87.20;;;;;;4974504;28;20093;-88
2021/01/28 02:29:36;;;;;;;22.80;9.32;;;8.40;87.00;;;;;;4999114;28;20035;-88
2021/01/28 02:32:03;;;;;;;24.52;11.13;;;8.40;87.00;;;;;;4977518;28;20488;-88
2021/01/28 02:34:29;;;;;;;18.70;8.30;;;8.40;86.90;;;;;;5003008;28;20030;-89
2021/01/28 02:36:55;;;;;;;22.27;9.18;;;8.40;86.90;;;;;;4989300;28;20659;-88
2021/01/28 02:39:25;;;;;;;20.15;8.02;;;8.40;86.90;;;;;;4980702;28;20018;-88
2021/01/28 02:42:08;;;;;;;19.92;8.73;;;8.40;86.90;;;;;;4975402;28;20030;-89
2021/01/28 02:44:33;;;;;;;;;;;8.40;86.90;;;;;;4971180;28;20023;-88
2021/01/28 02:46:59;;;;;;;18.08;7.45;;;8.40;86.80;;;;;;4983409;28;19917;-88
2021/01/28 02:49:24;;;;;;;18.10;6.90;;;8.40;86.80;;;;;;4990369;28;20077;-89
2021/01/28 02:51:50;;;;;;;19.65;7.32;;;8.40;86.80;;;;;;4982329;28;20031;-88
2021/01/28 02:54:15;;;;;;;14.02;6.25;;;8.40;86.70;;;;;;4998839;28;20048;-88
2021/01/28 02:56:41;;;;;;;18.73;7.63;;;8.40;86.60;;;;;;5012924;28;20045;-87
2021/01/28 02:59:08;;;;;;;20.48;8.18;;;8.40;86.60;;;;;;5007025;28;20034;-87
2021/01/28 03:01:34;;;;;;;23.02;9.90;;;8.40;86.50;;;;;;4998080;28;20030;-86
2021/01/28 03:03:59;;;;;;;24.67;9.38;;;8.40;86.50;;;;;;5020083;28;20034;-86
2021/01/28 03:06:25;;;;;;;22.05;8.55;;;8.40;86.60;;;;;;5003595;28;20072;-86
2021/01/28 03:08:51;;;;;;;21.23;8.50;;;8.40;86.60;;;;;;5004942;28;20011;-87
2021/01/28 03:11:17;;;;;;;31.25;11.30;;;8.40;86.60;;;;;;5015184;28;20058;-87
2021/01/28 03:13:42;;;;;;;19.33;7.50;;;8.40;86.70;;;;;;5024422;28;20013;-86
2021/01/28 03:16:09;;;;;;;18.63;7.25;;;8.40;86.70;;;;;;5004753;28;20038;-88
2021/01/28 03:18:35;;;;;;;21.52;7.13;;;8.40;86.70;;;;;;5015417;28;20056;-87
2021/01/28 03:21:00;;;;;;;11.90;5.43;;;8.40;86.70;;;;;;5003436;28;20065;-87
2021/01/28 03:23:27;;;;;;;10.18;4.50;;;8.40;86.60;;;;;;4977120;28;20532;-87
2021/01/28 03:25:52;;;;;;;13.25;5.15;;;8.40;86.60;;;;;;4993033;28;20076;-85
2021/01/28 03:28:18;;;;;;;9.52;4.13;;;8.30;86.40;;;;;;5003405;28;20466;-85
2021/01/28 03:30:46;;;;;;;10.55;4.57;;;8.30;86.50;;;;;;4998923;28;20034;-85
2021/01/28 03:33:15;;;;;;;8.52;3.97;;;8.30;86.50;;;;;;4975043;28;20031;-83
2021/01/28 03:35:42;;;;;;;8.55;3.30;;;8.30;86.50;;;;;;4992713;28;20041;-89
2021/01/28 03:38:10;;;;;;;6.60;3.53;;;8.30;86.50;;;;;;5001244;28;20034;-87
2021/01/28 03:40:37;;;;;;;6.47;3.10;;;8.20;86.60;;;;;;4992498;28;20054;-88
2021/01/28 03:43:04;;;;;;;4.72;2.60;;;8.30;86.60;;;;;;4991008;28;20053;-87
2021/01/28 03:45:30;;;;;;;9.45;3.60;;;8.30;86.50;;;;;;4994349;28;20022;-87
2021/01/28 03:47:57;;;;;;;7.60;3.88;;;8.20;86.50;;;;;;4994200;28;20073;-87
2021/01/28 03:50:27;;;;;;;7.20;3.50;;;8.20;86.50;;;;;;4981256;28;20130;-87
2021/01/28 03:52:52;;;;;;;5.85;3.20;;;8.20;86.50;;;;;;4995098;28;20113;-87
2021/01/28 03:55:18;;;;;;;6.97;3.30;;;8.20;86.50;;;;;;4996955;28;20121;-88
2021/01/28 03:57:49;;;;;;;6.63;3.60;;;8.20;86.50;;;;;;5003238;28;20019;-87
2021/01/28 04:00:18;;;;;;;6.18;2.83;;;8.20;86.50;;;;;;4994494;28;20034;-87
2021/01/28 04:02:45;;;;;;;7.47;3.75;;;8.20;86.40;;;;;;4990977;28;20022;-87
2021/01/28 04:05:12;;;;;;;8.32;3.90;;;8.10;87.00;;;;;;4993671;28;20034;-87
2021/01/28 04:07:37;;;;;;;8.95;4.00;;;8.10;86.50;;;;;;5007320;28;20391;-86
2021/01/28 04:10:06;;;;;;;8.50;3.30;;;8.10;86.50;;;;;;4993166;28;20034;-86
2021/01/28 04:12:32;;;;;;;5.03;3.00;;;8.10;86.50;;;;;;4991612;28;20488;-87
2021/01/28 04:14:57;;;;;;;5.72;2.30;;;8.10;86.50;;;;;;4992125;28;20022;-87
2021/01/28 04:17:23;;;;;;;6.97;2.35;;;8.10;86.40;;;;;;4993025;28;20023;-87
2021/01/28 04:19:48;;;;;;;3.35;1.80;;;8.10;86.40;;;;;;4993001;28;20031;-87
2021/01/28 04:22:14;;;;;;;4.43;1.98;;;8.00;86.30;;;;;;4995610;28;20022;-88
2021/01/28 04:24:40;;;;;;;5.20;2.10;;;8.00;86.40;;;;;;4976872;28;20353;-88
2021/01/28 04:27:05;;;;;;;5.60;2.45;;;8.00;86.40;;;;;;4977087;28;20105;-88
2021/01/28 04:29:31;;;;;;;3.55;1.50;;;7.90;86.40;;;;;;4994212;28;20026;-88
2021/01/28 04:31:57;;;;;;;7.45;2.70;;;7.90;86.50;;;;;;4977351;28;20030;-88
2021/01/28 04:34:22;;;;;;;6.75;2.90;;;7.80;86.50;;;;;;4990272;28;20033;-89
2021/01/28 04:36:48;;;;;;;10.05;3.30;;;7.60;86.60;;;;;;5013717;28;20030;-87
2021/01/28 04:39:14;;;;;;;6.97;2.88;;;7.50;86.70;;;;;;5001927;28;20018;-88
2021/01/28 04:41:41;;;;;;;7.78;3.08;;;7.50;87.00;;;;;;5003604;28;20018;-89
2021/01/28 04:44:07;;;;;;;9.77;4.50;;;7.40;87.20;;;;;;5014076;28;20017;-89
2021/01/28 04:46:37;;;;;;;8.77;3.47;;;7.50;87.40;;;;;;5002978;28;20053;-86
2021/01/28 04:49:10;;;;;;;6.63;2.78;;;7.20;87.50;;;;;;4997274;28;20040;-87
2021/01/28 04:51:36;;;;;;;7.07;3.20;;;7.30;87.60;;;;;;5016432;28;20049;-86
2021/01/28 04:54:32;;;;;;;6.40;2.78;;;7.30;87.50;;;;;;5010815;28;20101;-88
2021/01/28 04:57:01;;;;;;;10.18;3.00;;;7.20;87.70;;;;;;4977211;28;20041;-87
2021/01/28 04:59:30;;;;;;;12.15;3.40;;;7.20;87.90;;;;;;4993710;28;20022;-86
2021/01/28 05:01:59;;;;;;;11.25;4.10;;;7.20;87.90;;;;;;4986394;28;20023;-87
2021/01/28 05:04:36;;;;;;;10.57;2.97;;;7.10;88.10;;;;;;4976634;28;20400;-86
2021/01/28 05:07:01;;;;;;;14.73;5.00;;;7.10;88.30;;;;;;4985567;28;20022;-87
2021/01/28 05:09:27;;;;;;;7.50;4.03;;;7.00;88.30;;;;;;4977170;28;20094;-87
2021/01/28 05:12:02;;;;;;;10.38;4.00;;;7.00;88.40;;;;;;4992165;28;20034;-88
2021/01/28 05:14:32;;;;;;;7.28;3.00;;;7.10;88.70;;;;;;4998929;28;20019;-87
2021/01/28 05:17:05;;;;;;;12.38;4.82;;;6.90;88.60;;;;;;4971831;28;20057;-87
2021/01/28 05:19:44;;;;;;;10.63;4.15;;;7.00;88.80;;;;;;4977728;28;20105;-87
2021/01/28 05:22:22;;;;;;;10.80;4.20;;;6.90;89.00;;;;;;4996792;28;20379;-88
2021/01/28 05:25:41;;;;;;;10.73;4.45;;;6.90;89.30;;;;;;4992288;28;20041;-88
2021/01/28 05:28:20;;;;;;;7.53;3.25;;;6.70;89.40;;;;;;4934766;28;20040;-88
2021/01/28 05:30:46;;;;;;;6.72;3.35;;;6.80;89.60;;;;;;4977793;28;20401;-87
2021/01/28 05:33:50;;;;;;;9.00;3.90;;;6.80;89.60;;;;;;4977717;28;20026;-89
2021/01/28 05:36:17;;;;;;;8.88;3.25;;;6.80;89.60;;;;;;4934245;29;20426;-89
2021/01/28 05:38:54;;;;;;;9.50;4.35;;;6.80;89.60;;;;;;4932542;29;20024;-88
2021/01/28 05:41:41;;;;;;;5.55;2.63;;;6.80;89.50;;;;;;4943021;28;20490;-88
2021/01/28 05:44:23;;;;;;;8.70;4.00;;;6.80;89.60;;;;;;4999855;28;20090;-89
2021/01/28 05:47:20;;;;;;;12.32;4.50;;;6.80;89.50;;;;;;4985175;28;20031;-88
2021/01/28 05:49:47;;;;;;;9.27;4.03;;;6.80;89.60;;;;;;4982068;28;20496;-88
2021/01/28 05:52:20;;;;;;;11.00;4.13;;;6.70;89.50;;;;;;5004325;28;20045;-87
2021/01/28 05:55:15;;;;;;;9.35;3.35;;;6.70;89.70;;;;;;4982489;28;20029;-87
2021/01/28 05:57:44;;;;;;;8.45;3.00;;;6.60;89.70;;;;;;4996042;28;20102;-88
2021/01/28 06:00:38;;;;;;;5.80;2.28;;;6.70;89.80;;;;;;5015320;28;20030;-88
2021/01/28 06:03:36;;;;;;;6.95;3.00;;;6.80;89.80;;;;;;4982303;28;20033;-87
2021/01/28 06:06:33;;;;;;;8.73;3.60;;;6.70;89.70;;;;;;4996503;28;20015;-88
2021/01/28 06:09:26;;;;;;;8.32;3.10;;;6.70;89.80;;;;;;4994880;28;20053;-87
2021/01/28 06:12:17;;;;;;;6.60;3.10;;;6.60;89.80;;;;;;5017038;28;20113;-87
2021/01/28 06:15:01;;;;;;;6.07;2.55;;;6.60;89.80;;;;;;5015723;28;20018;-88
2021/01/28 06:18:01;;;;;;;6.68;2.78;;;6.60;89.80;;;;;;5020429;28;20025;-87
2021/01/28 06:20:37;;;;;;;7.25;2.72;;;6.60;89.80;;;;;;5018026;28;20019;-90
2021/01/28 06:23:29;;;;;;;6.53;2.78;;;6.60;89.80;;;;;;4977992;28;20018;-90
2021/01/28 06:26:30;;;;;;;5.93;2.17;;;6.50;89.70;;;;;;4981314;28;20037;-89
2021/01/28 06:29:14;;;;;;;7.00;2.20;;;6.50;89.90;;;;;;4973783;28;20031;-89
2021/01/28 06:32:00;;;;;;;6.20;2.17;;;6.50;90.00;;;;;;4993859;28;20041;-89
2021/01/28 06:35:03;;;;;;;4.22;1.75;;;6.50;90.00;;;;;;4991339;28;20037;-90
2021/01/28 06:38:03;;;;;;;3.92;1.50;;;6.40;90.00;;;;;;4972988;28;20431;-89
2021/01/28 06:40:31;;;;;;;6.50;1.73;;;6.30;90.00;;;;;;4988702;28;20045;-88
2021/01/28 06:43:07;;;;;;;4.28;1.65;;;6.30;90.00;;;;;;4988617;28;20027;-88
2021/01/28 06:45:37;;;;;;;5.50;2.10;;;6.30;90.10;;;;;;4991805;28;20099;-89
2021/01/28 06:48:17;;;;;;;3.92;2.00;;;6.40;90.10;;;;;;4992027;28;20022;-88
2021/01/28 06:50:51;;;;;;;3.80;1.70;;;6.40;90.10;;;;;;4975757;28;20034;-90
2021/01/28 06:53:26;;;;;;;3.38;1.83;;;6.40;90.10;;;;;;4989517;28;20026;-90
2021/01/28 06:56:04;;;;;;;3.80;2.00;;;6.30;90.10;;;;;;4996945;28;20495;-90
2021/01/28 06:58:54;;;;;;;9.45;3.17;;;6.40;90.20;;;;;;4981346;28;20021;-91
2021/01/28 07:01:32;;;;;;;3.33;1.58;;;6.30;90.20;;;;;;4993347;28;20038;-90
2021/01/28 07:04:23;;;;;;;5.75;2.42;;;6.30;90.20;;;;;;4998139;28;20026;-90
2021/01/28 07:06:58;;;;;;;5.15;3.17;;;6.20;90.20;;;;;;4999195;28;20034;-89
2021/01/28 07:09:51;;;;;;;4.65;2.00;;;6.20;90.30;;;;;;4992909;28;20060;-90
2021/01/28 07:12:25;;;;;;;4.95;2.40;;;6.20;90.40;;;;;;4997084;28;20142;-89
2021/01/28 07:14:54;;;;;;;3.67;2.05;;;6.20;90.40;;;;;;4982749;28;20024;-90
2021/01/28 07:17:38;;;;;;;4.60;2.58;;;6.20;90.40;;;;;;4996438;28;20023;-89
2021/01/28 07:20:07;;;;;;;7.05;3.13;;;6.30;90.40;;;;;;4981000;28;20544;-90
2021/01/28 07:22:36;;;;;;;4.35;2.50;;;6.20;90.40;;;;;;4972621;28;20242;-87
2021/01/28 07:25:33;;;;;;;7.28;2.42;;;6.20;90.40;;;;;;4992216;28;20344;-92
2021/01/28 07:30:44;;;;;;;5.45;2.55;;;6.20;90.50;;;;;;5126099;22;20061;-88
2021/01/28 07:33:25;;;;;;;4.47;3.00;;;6.20;90.50;;;;;;5001987;28;20049;-87
2021/01/28 07:36:39;;;;;;;6.88;2.60;;;6.30;90.70;;;;;;5015544;28;20025;-87
2021/01/28 07:39:28;;;;;;;4.80;2.60;;;6.10;90.60;;;;;;5039977;22;20052;-89
2021/01/28 07:41:56;;;;;;;3.35;2.33;;;6.10;90.60;;;;;;5011165;28;20026;-87
2021/01/28 07:44:39;;;;;;;3.85;2.65;;;6.10;90.60;;;;;;5033661;28;20044;-86
2021/01/28 08:00:20;;;;;;;3.90;1.95;;;6.20;90.60;;;;;;5324605;22;20038;-88
2021/01/28 08:03:27;;;;;;;3.35;2.05;;;6.20;90.70;;;;;;5010681;28;20029;-89
2021/01/28 08:06:35;;;;;;;5.90;2.30;;;6.20;90.70;;;;;;5016654;28;20045;-88
2021/01/28 08:19:45;;;;;;;2.88;1.83;;;6.20;90.40;;;;;;5678828;22;20064;-89
2021/01/28 08:25:16;;;;;;;3.67;2.33;;;6.20;90.50;;;;;;5240606;22;20057;-85
2021/01/28 08:27:51;;;;;;;3.65;2.20;;;6.10;90.50;;;;;;5072261;23;20141;-85
2021/01/28 08:31:25;;;;;;;5.32;2.58;;;6.00;90.40;;;;;;4998740;28;20065;-85
2021/01/28 08:33:36;;;;;;;4.10;2.60;;;6.10;90.50;;;;;;4993667;28;20030;-90
2021/01/28 08:36:02;;;;;;;3.47;2.42;;;6.10;90.60;;;;;;5003704;28;20149;-91
2021/01/28 08:38:34;;;;;;;4.07;2.45;;;6.10;90.60;;;;;;5006994;28;20030;-93
2021/01/28 08:41:06;;;;;;;3.25;2.00;;;6.20;90.60;;;;;;5007989;28;20022;-92
2021/01/28 08:43:32;;;;;;;3.80;2.70;;;6.10;90.60;;;;;;4989002;28;20088;-92
2021/01/28 08:46:20;;;;;;;2.72;1.88;;;6.20;90.60;;;;;;5008434;28;20018;-92
2021/01/28 08:48:47;;;;;;;3.10;2.08;;;6.20;90.60;;;;;;5004104;28;20463;-92
2021/01/28 08:51:26;;;;;;;2.20;1.73;;;6.20;90.50;;;;;;4986848;28;20076;-94
2021/01/28 08:54:00;;;;;;;3.30;2.08;;;6.20;90.50;;;;;;4984711;28;20081;-92
2021/01/28 08:56:35;;;;;;;4.18;2.65;;;6.20;90.50;;;;;;4990189;28;20022;-94
2021/01/28 08:59:06;;;;;;;2.38;1.60;;;6.20;90.40;;;;;;4991900;28;20045;-94
2021/01/28 09:01:50;;;;;;;2.58;1.60;;;6.20;90.50;;;;;;4996923;28;20287;-94
2021/01/28 09:04:26;;;;;;;2.85;2.00;;;6.40;90.60;;;;;;5012976;28;20053;-91
2021/01/28 09:06:53;;;;;;;5.25;3.17;;;6.30;90.50;;;;;;5021449;28;20014;-91
2021/01/28 09:09:21;;;;;;;5.28;3.15;;;6.30;90.40;;;;;;5021719;28;20046;-91
2021/01/28 09:11:47;;;;;;;2.60;1.85;;;6.30;90.40;;;;;;5023084;28;20006;-93
2021/01/28 09:14:28;;;;;;;4.05;2.70;;;6.30;90.40;;;;;;5020424;28;20258;-95
2021/01/28 09:17:28;;;;;;;2.80;2.10;;;6.30;90.40;;;;;;4996820;28;20201;-94
2021/01/28 09:19:56;;;;;;;4.28;2.50;;;6.40;90.40;;;;;;5019122;28;20038;-92
2021/01/28 09:22:37;;;;;;;4.68;3.08;;;6.30;90.60;;;;;;4996246;28;20084;-93
2021/01/28 09:25:17;;;;;;;3.78;2.63;;;6.30;90.50;;;;;;4994154;28;20049;-92
2021/01/28 09:27:43;;;;;;;3.15;2.40;;;6.20;90.50;;;;;;5011982;28;20034;-91
2021/01/28 09:30:23;;;;;;;3.67;2.72;;;6.20;90.50;;;;;;5019294;28;20038;-93
2021/01/28 09:32:49;;;;;;;4.97;3.60;;;6.30;90.50;;;;;;5017593;28;20098;-92
2021/01/28 09:35:20;;;;;;;4.53;3.17;;;6.30;90.50;;;;;;5010243;28;20113;-90
2021/01/28 09:38:00;;;;;;;4.72;3.20;;;6.30;90.50;;;;;;4993118;28;20032;-92
2021/01/28 09:40:30;;;;;;;5.82;3.80;;;6.30;90.50;;;;;;5018831;28;20781;-93
2021/01/28 09:43:18;;;;;;;4.65;3.53;;;6.30;90.50;;;;;;5010628;28;20022;-93
2021/01/28 09:46:10;;;;;;;5.43;3.88;;;6.30;90.90;;;;;;5006884;28;20049;-95
2021/01/28 09:51:10;;;;;;;5.85;3.42;;;6.30;90.60;;;;;;5423919;22;20114;-90
2021/01/28 09:53:36;;;;;;;6.00;4.60;;;6.30;90.60;;;;;;5014927;28;20045;-93
2021/01/28 09:56:49;;;;;;;4.28;3.50;;;6.40;90.60;;;;;;5029932;28;20243;-94
2021/01/28 09:59:15;;;;;;;5.38;3.88;;;6.40;90.60;;;;;;5003747;28;20030;-90
2021/01/28 10:04:12;;;;;;;4.97;3.60;;;6.40;90.60;;;;;;5155366;22;20106;-91
2021/01/28 10:06:48;;;;;;;4.78;3.42;;;6.40;90.60;;;;;;5076213;28;20033;-92
2021/01/28 10:09:14;;;;;;;6.68;5.05;;;6.50;90.60;;;;;;5060130;28;20033;-93
2021/01/28 10:11:46;;;;;;;7.10;4.95;;;6.50;90.50;;;;;;5057776;28;20078;-92
2021/01/28 10:16:53;;;;;;;6.82;5.13;;;6.40;90.60;;;;;;5333860;22;20034;-91
2021/01/28 10:25:12;;;;;;;10.63;6.55;;;6.50;90.60;;;;;;5004118;28;19914;-92
2021/01/28 10:27:39;;;;;;;9.75;7.07;;;6.50;90.60;;;;;;4991366;28;20027;-92
2021/01/28 10:30:08;;;;;;;7.00;5.07;;;6.50;90.60;;;;;;4980576;28;20030;-93
2021/01/28 10:32:34;;;;;;;9.10;6.78;;;6.50;90.60;;;;;;4973276;28;20267;-94
2021/01/28 10:34:59;;;;;;;7.80;5.60;;;6.50;90.60;;;;;;4977370;28;20158;-92
2021/01/28 10:37:26;;;;;;;8.02;5.90;;;6.50;90.60;;;;;;4976564;28;20308;-91
2021/01/28 10:39:52;;;;;;;4.75;3.63;;;6.50;90.60;;;;;;4977123;28;20035;-93
2021/01/28 10:42:28;;;;;;;5.97;4.03;;;6.60;90.60;;;;;;4976846;28;20023;-93
2021/01/28 10:44:53;;;;;;;7.47;5.30;;;6.60;90.50;;;;;;4982819;28;20027;-93
2021/01/28 10:47:19;;;;;;;6.40;4.53;;;6.60;90.50;;;;;;4973349;28;20467;-92
2021/01/28 10:49:45;;;;;;;8.25;6.07;;;6.60;90.50;;;;;;4972223;28;20031;-92
2021/01/28 10:52:12;;;;;;;7.72;6.03;;;6.60;90.40;;;;;;4975799;28;20031;-94
2021/01/28 10:54:38;;;;;;;10.05;6.72;;;6.60;90.50;;;;;;4983758;28;20053;-89
2021/01/28 10:57:05;;;;;;;9.52;6.60;;;6.50;90.50;;;;;;4972352;28;20031;-93
2021/01/28 10:59:30;;;;;;;10.38;7.82;;;6.60;90.50;;;;;;4972805;28;20076;-95
2021/01/28 11:01:56;;;;;;;9.07;6.20;;;6.50;90.50;;;;;;4971669;28;20023;-95
2021/01/28 11:04:33;;;;;;;7.05;5.25;;;6.50;90.60;;;;;;4965706;28;20066;-93
2021/01/28 11:07:01;;;;;;;8.55;6.05;;;6.50;90.60;;;;;;4976109;28;20308;-94
2021/01/28 11:09:27;;;;;;;6.38;4.72;;;6.60;90.60;;;;;;4985243;28;20033;-94
2021/01/28 11:11:53;;;;;;;9.43;7.10;;;6.60;90.60;;;;;;4987035;28;20192;-96
2021/01/28 11:14:19;;;;;;;7.32;5.60;;;6.60;90.50;;;;;;4974327;28;20503;-96
2021/01/28 11:16:45;;;;;;;9.05;6.57;;;6.60;90.50;;;;;;4989439;28;20119;-95
2021/01/28 11:19:12;;;;;;;6.78;4.80;;;6.50;90.50;;;;;;4996029;28;20030;-95
2021/01/28 11:21:43;;;;;;;6.80;4.95;;;6.50;90.60;;;;;;5000322;28;20018;-95
2021/01/28 11:24:12;;;;;;;8.25;6.50;;;6.60;90.60;;;;;;4978258;28;20043;-96
2021/01/28 11:26:37;;;;;;;7.22;5.45;;;6.50;90.60;;;;;;4979754;28;20594;-96
2021/01/28 11:29:04;;;;;;;6.10;4.28;;;6.50;90.60;;;;;;4976445;28;20055;-96
2021/01/28 11:31:31;;;;;;;4.97;3.55;;;6.50;90.60;;;;;;4983146;28;20042;-96
2021/01/28 11:33:57;;;;;;;8.25;6.07;;;6.60;90.60;;;;;;4994160;28;20003;-96
2021/01/28 11:36:23;;;;;;;4.88;3.88;;;6.50;90.50;;;;;;4998314;28;20090;-96
2021/01/28 11:38:48;;;;;;;4.85;3.90;;;6.60;90.60;;;;;;4969568;28;20054;-96
2021/01/28 11:41:14;;;;;;;5.55;4.25;;;6.60;90.50;;;;;;4984168;28;20026;-95
2021/01/28 11:43:40;;;;;;;4.80;3.60;;;6.50;90.50;;;;;;4977269;28;20145;-95
2021/01/28 11:46:05;;;;;;;5.40;4.30;;;6.60;90.50;;;;;;4979947;28;20054;-96
2021/01/28 11:48:31;;;;;;;6.13;5.00;;;6.60;90.50;;;;;;4991422;28;20121;-96
2021/01/28 11:50:58;;;;;;;5.40;4.10;;;6.50;90.40;;;;;;4982797;28;20023;-96
2021/01/28 11:53:24;;;;;;;4.95;3.72;;;6.60;90.50;;;;;;4991081;28;20022;-94
2021/01/28 11:55:50;;;;;;;5.53;3.97;;;6.60;90.50;;;;;;4987772;28;20055;-93
2021/01/28 11:58:18;;;;;;;6.18;4.55;;;6.70;90.50;;;;;;4973439;28;20038;-94
2021/01/28 12:00:45;;;;;;;6.85;5.07;;;6.60;90.50;;;;;;4972480;28;20022;-95
2021/01/28 12:03:11;;;;;;;5.75;4.53;;;6.60;90.50;;;;;;4982138;28;20035;-95
2021/01/28 12:05:37;;;;;;;5.80;4.20;;;6.60;90.50;;;;;;4972351;28;20063;-95
2021/01/28 12:08:03;;;;;;;6.95;4.82;;;6.60;90.80;;;;;;4977933;28;20035;-92
2021/01/28 12:10:40;;;;;;;;;;;;;;;;;;;;;
2021/01/28 12:13:06;;;;;;;5.47;4.60;;;6.80;90.50;;;;;;4978293;28;20049;-94
2021/01/28 12:15:32;;;;;;;6.88;4.95;;;6.70;90.50;;;;;;4985599;28;20378;-91
2021/01/28 12:17:58;;;;;;;8.88;6.00;;;6.70;90.50;;;;;;4969720;28;20066;-93
2021/01/28 12:20:29;;;;;;;7.18;5.72;;;6.70;90.40;;;;;;4980718;28;20023;-90
2021/01/28 12:22:55;;;;;;;6.13;5.07;;;6.70;90.40;;;;;;4977224;28;20026;-92
2021/01/28 12:25:21;;;;;;;7.55;6.13;;;6.70;90.40;;;;;;4979330;28;20026;-91
2021/01/28 12:27:47;;;;;;;7.35;5.90;;;6.70;90.40;;;;;;4989173;22;20122;-94
2021/01/28 12:30:16;;;;;;;7.55;5.13;;;6.60;90.40;;;;;;4999809;28;20040;-93
2021/01/28 12:32:41;;;;;;;6.45;4.90;;;6.70;90.50;;;;;;4996624;28;20026;-92
2021/01/28 12:35:08;;;;;;;5.38;4.28;;;6.70;90.50;;;;;;4980907;28;20384;-94
2021/01/28 12:37:33;;;;;;;6.10;4.82;;;6.70;90.40;;;;;;4988755;28;20022;-92
2021/01/28 12:39:59;;;;;;;7.10;5.45;;;6.70;90.30;;;;;;4980355;28;20027;-92
2021/01/28 12:42:25;;;;;;;6.32;4.75;;;6.80;90.30;;;;;;4980946;28;20038;-93
2021/01/28 12:44:52;;;;;;;5.88;4.40;;;6.80;90.30;;;;;;4985907;28;20515;-94
2021/01/28 12:47:18;;;;;;;6.55;5.18;;;6.70;90.30;;;;;;4966031;28;20039;-93
2021/01/28 12:49:45;;;;;;;6.00;4.32;;;6.70;90.20;;;;;;4967439;28;20499;-94
2021/01/28 12:52:12;;;;;;;5.07;4.07;;;6.80;90.50;;;;;;4983137;28;20113;-93
2021/01/28 12:54:38;;;;;;;5.60;4.32;;;6.80;90.20;;;;;;4981590;28;20046;-93
2021/01/28 12:57:04;;;;;;;6.28;4.60;;;6.80;90.20;;;;;;4974544;28;20027;-92
2021/01/28 12:59:30;;;;;;;4.13;3.42;;;6.80;90.10;;;;;;4982347;28;20046;-92
2021/01/28 13:01:55;;;;;;;5.50;4.57;;;6.70;90.10;;;;;;4985373;28;20038;-94
2021/01/28 13:04:21;;;;;;;4.95;4.05;;;6.70;90.10;;;;;;4972098;28;20752;-92
2021/01/28 13:06:46;;;;;;;4.30;3.38;;;6.70;90.10;;;;;;4984684;28;20064;-91
2021/01/28 13:09:13;;;;;;;4.00;3.30;;;6.70;90.10;;;;;;4984310;28;20070;-92
2021/01/28 13:11:38;;;;;;;5.43;3.28;;;6.60;90.00;;;;;;4987319;28;20034;-91
2021/01/28 13:14:04;;;;;;;4.00;3.25;;;6.60;90.10;;;;;;4989541;28;20023;-92
2021/01/28 13:16:30;;;;;;;4.20;3.10;;;6.70;90.10;;;;;;4989320;28;20112;-92
2021/01/28 13:18:55;;;;;;;4.75;3.50;;;6.70;90.00;;;;;;5002597;28;20077;-91
2021/01/28 13:21:21;;;;;;;3.95;3.20;;;6.70;90.00;;;;;;4984405;28;20031;-93
2021/01/28 13:23:46;;;;;;;3.95;3.10;;;6.70;90.00;;;;;;4980196;28;20077;-89
2021/01/28 13:47:40;;;;;;;3.50;2.90;;;6.80;89.40;;;;;;4991467;28;20050;-90
2021/01/28 13:50:06;;;;;;;3.38;2.90;;;6.70;89.20;;;;;;5004839;28;20046;-92
2021/01/28 13:52:33;;;;;;;3.53;2.50;;;6.70;89.10;;;;;;5006133;28;20165;-89
2021/01/28 13:55:00;;;;;;;3.10;2.40;;;6.70;89.10;;;;;;4997942;28;20041;-90
2021/01/28 13:57:29;;;;;;;3.50;2.80;;;6.60;88.90;;;;;;4999214;28;20034;-92
2021/01/28 13:59:54;;;;;;;2.60;2.10;;;6.60;88.70;;;;;;4999227;28;20045;-91
2021/01/28 14:02:20;;;;;;;2.42;2.00;;;6.70;88.90;;;;;;4994207;28;20022;-91
2021/01/28 14:04:46;;;;;;;2.90;2.45;;;6.60;88.70;;;;;;5004346;28;20090;-91
2021/01/28 14:07:11;;;;;;;2.30;1.98;;;6.60;88.70;;;;;;5014189;28;20022;-90
2021/01/28 14:09:48;;;;;;;3.08;2.53;;;6.60;88.60;;;;;;5004655;28;20038;-90
2021/01/28 14:12:26;;;;;;;2.95;2.60;;;6.60;88.70;;;;;;5000913;28;20109;-92
2021/01/28 14:14:51;;;;;;;3.28;2.55;;;6.80;88.90;;;;;;5002491;28;20117;-90
2021/01/28 14:17:17;;;;;;;3.15;2.85;;;6.70;88.70;;;;;;4996571;28;20351;-89
2021/01/28 14:19:43;;;;;;;3.50;2.65;;;6.70;88.70;;;;;;4993914;28;20045;-90
2021/01/28 14:22:08;;;;;;;3.10;2.10;;;6.70;88.60;;;;;;4976478;28;20086;-92